createdAt,value
2023-02-06T00:00:48.702Z,-4.04
2023-02-06T00:03:36.347Z,-4.12
2023-02-06T00:06:24.347Z,-4.36
2023-02-06T00:09:14.572Z,-4.40
2023-02-06T00:12:04.547Z,-4.21
2023-02-06T00:14:52.214Z,-4.38
2023-02-06T00:17:48.157Z,-4.38
2023-02-06T00:20:36.909Z,-4.26
2023-02-06T00:23:24.624Z,-4.62
2023-02-06T00:26:12.486Z,-4.57
2023-02-06T00:29:00.284Z,-4.87
2023-02-06T00:31:48.003Z,-4.77
2023-02-06T00:34:35.661Z,-4.89
2023-02-06T00:37:23.502Z,-4.89
2023-02-06T00:40:11.702Z,-5.11
2023-02-06T00:42:59.460Z,-5.28
2023-02-06T00:45:58.116Z,-5.27
2023-02-06T00:48:45.865Z,-5.18
2023-02-06T00:51:33.656Z,-5.25
2023-02-06T00:54:21.270Z,-5.36
2023-02-06T00:57:08.964Z,-5.36
2023-02-06T00:59:56.714Z,-5.79
2023-02-06T01:02:46.659Z,-5.61
2023-02-06T01:05:35.362Z,-5.75
2023-02-06T01:08:23.298Z,-5.84
2023-02-06T01:11:27.806Z,-5.81
2023-02-06T01:14:28.228Z,-6.04
2023-02-06T01:17:39.203Z,-5.97
2023-02-06T01:20:26.873Z,-5.81
2023-02-06T01:23:14.505Z,-6.03
2023-02-06T01:26:10.846Z,-6.01
2023-02-06T01:28:58.658Z,-5.96
2023-02-06T01:31:46.392Z,-5.98
2023-02-06T01:34:34.098Z,-6.18
2023-02-06T01:37:24.964Z,-6.27
2023-02-06T01:40:16.037Z,-6.23
2023-02-06T01:43:03.846Z,-6.18
2023-02-06T01:45:51.768Z,-6.37
2023-02-06T01:48:47.770Z,-6.58
2023-02-06T01:51:35.980Z,-6.73
2023-02-06T01:54:24.396Z,-6.61
2023-02-06T01:57:13.749Z,-6.70
2023-02-06T02:00:06.842Z,-6.82
2023-02-06T02:03:01.691Z,-6.98
2023-02-06T02:05:51.264Z,-7.00
2023-02-06T02:08:48.543Z,-7.13
2023-02-06T02:11:42.180Z,-7.02
2023-02-06T02:14:30.404Z,-7.31
2023-02-06T02:17:45.794Z,-7.30
2023-02-06T02:21:15.861Z,-7.93
